sensor_id;sensor_type;location;lat;lon;timestamp;P1;durP1;ratioP1;P2;durP2;ratioP2
72198;SDS011;60103;51.014;16.992;2023-04-01T00:01:05;10.20;;;4.10;;
72198;SDS011;60103;51.014;16.992;2023-04-01T00:03:34;10.90;;;4.50;;
72198;SDS011;60103;51.014;16.992;2023-04-01T00:06:03;10.70;;;5.00;;
72198;SDS011;60103;51.014;16.992;2023-04-01T00:08:32;13.00;;;5.40;;
72198;SDS011;60103;51.014;16.992;2023-04-01T00:11:01;12.50;;;5.80;;
72198;SDS011;60103;51.014;16.992;2023-04-01T00:13:30;11.50;;;5.50;;
72198;SDS011;60103;51.014;16.992;2023-04-01T00:15:58;13.90;;;5.70;;
72198;SDS011;60103;51.014;16.992;2023-04-01T00:18:30;14.30;;;5.90;;
72198;SDS011;60103;51.014;16.992;2023-04-01T00:20:58;14.20;;;6.30;;
72198;SDS011;60103;51.014;16.992;2023-04-01T00:23:27;11.90;;;5.60;;
72198;SDS011;60103;51.014;16.992;2023-04-01T00:25:58;12.30;;;6.20;;
72198;SDS011;60103;51.014;16.992;2023-04-01T00:28:29;11.30;;;5.70;;
72198;SDS011;60103;51.014;16.992;2023-04-01T00:30:58;10.70;;;5.20;;
72198;SDS011;60103;51.014;16.992;2023-04-01T00:33:27;11.40;;;5.50;;
72198;SDS011;60103;51.014;16.992;2023-04-01T00:35:55;10.90;;;5.40;;
72198;SDS011;60103;51.014;16.992;2023-04-01T00:38:24;12.00;;;5.90;;
72198;SDS011;60103;51.014;16.992;2023-04-01T00:40:56;13.00;;;5.80;;
72198;SDS011;60103;51.014;16.992;2023-04-01T00:43:26;11.90;;;5.60;;
72198;SDS011;60103;51.014;16.992;2023-04-01T00:45:55;13.20;;;6.30;;
72198;SDS011;60103;51.014;16.992;2023-04-01T00:48:32;11.70;;;5.80;;
72198;SDS011;60103;51.014;16.992;2023-04-01T00:51:06;12.00;;;5.80;;
72198;SDS011;60103;51.014;16.992;2023-04-01T00:53:40;13.00;;;6.40;;
72198;SDS011;60103;51.014;16.992;2023-04-01T00:56:12;10.50;;;4.80;;
72198;SDS011;60103;51.014;16.992;2023-04-01T00:58:44;10.90;;;5.70;;
72198;SDS011;60103;51.014;16.992;2023-04-01T01:01:18;12.60;;;5.60;;
72198;SDS011;60103;51.014;16.992;2023-04-01T01:03:49;11.50;;;5.40;;
72198;SDS011;60103;51.014;16.992;2023-04-01T01:17:40;11.10;;;5.20;;
72198;SDS011;60103;51.014;16.992;2023-04-01T01:25:59;10.10;;;4.80;;
72198;SDS011;60103;51.014;16.992;2023-04-01T01:37:18;8.80;;;3.70;;
72198;SDS011;60103;51.014;16.992;2023-04-01T01:39:51;11.00;;;4.50;;
72198;SDS011;60103;51.014;16.992;2023-04-01T01:42:23;10.10;;;4.20;;
72198;SDS011;60103;51.014;16.992;2023-04-01T01:44:54;10.80;;;4.70;;
72198;SDS011;60103;51.014;16.992;2023-04-01T01:47:25;10.20;;;4.60;;
72198;SDS011;60103;51.014;16.992;2023-04-01T01:49:57;9.70;;;4.40;;
72198;SDS011;60103;51.014;16.992;2023-04-01T01:52:27;10.10;;;4.30;;
72198;SDS011;60103;51.014;16.992;2023-04-01T01:54:57;9.90;;;4.60;;
72198;SDS011;60103;51.014;16.992;2023-04-01T01:57:33;11.90;;;4.90;;
72198;SDS011;60103;51.014;16.992;2023-04-01T02:00:09;10.30;;;4.30;;
72198;SDS011;60103;51.014;16.992;2023-04-01T02:02:43;9.60;;;4.40;;
72198;SDS011;60103;51.014;16.992;2023-04-01T02:05:19;10.30;;;3.80;;
72198;SDS011;60103;51.014;16.992;2023-04-01T02:07:52;11.00;;;4.40;;
72198;SDS011;60103;51.014;16.992;2023-04-01T02:10:40;9.70;;;3.80;;
72198;SDS011;60103;51.014;16.992;2023-04-01T02:13:18;12.60;;;4.50;;
72198;SDS011;60103;51.014;16.992;2023-04-01T02:15:55;10.00;;;4.50;;
72198;SDS011;60103;51.014;16.992;2023-04-01T02:18:28;10.00;;;4.60;;
72198;SDS011;60103;51.014;16.992;2023-04-01T02:20:57;10.90;;;4.00;;
72198;SDS011;60103;51.014;16.992;2023-04-01T02:23:28;9.00;;;3.40;;
72198;SDS011;60103;51.014;16.992;2023-04-01T02:25:57;10.50;;;3.60;;
72198;SDS011;60103;51.014;16.992;2023-04-01T02:28:25;10.40;;;4.30;;
72198;SDS011;60103;51.014;16.992;2023-04-01T02:30:56;10.50;;;4.20;;
72198;SDS011;60103;51.014;16.992;2023-04-01T02:33:26;9.10;;;3.60;;
72198;SDS011;60103;51.014;16.992;2023-04-01T02:35:55;8.90;;;3.80;;
72198;SDS011;60103;51.014;16.992;2023-04-01T02:38:26;10.20;;;3.70;;
72198;SDS011;60103;51.014;16.992;2023-04-01T02:40:59;8.70;;;3.80;;
72198;SDS011;60103;51.014;16.992;2023-04-01T02:43:28;9.10;;;3.90;;
72198;SDS011;60103;51.014;16.992;2023-04-01T02:45:57;8.70;;;3.60;;
72198;SDS011;60103;51.014;16.992;2023-04-01T02:48:26;11.10;;;4.10;;
72198;SDS011;60103;51.014;16.992;2023-04-01T02:50:55;11.30;;;4.50;;
72198;SDS011;60103;51.014;16.992;2023-04-01T02:53:24;10.70;;;4.90;;
72198;SDS011;60103;51.014;16.992;2023-04-01T02:55:53;8.70;;;3.80;;
72198;SDS011;60103;51.014;16.992;2023-04-01T02:58:22;9.80;;;4.20;;
72198;SDS011;60103;51.014;16.992;2023-04-01T03:00:51;9.60;;;4.30;;
72198;SDS011;60103;51.014;16.992;2023-04-01T03:03:21;9.50;;;3.90;;
72198;SDS011;60103;51.014;16.992;2023-04-01T03:05:50;10.80;;;4.50;;
72198;SDS011;60103;51.014;16.992;2023-04-01T03:08:19;10.00;;;4.10;;
72198;SDS011;60103;51.014;16.992;2023-04-01T03:10:48;12.30;;;3.90;;
72198;SDS011;60103;51.014;16.992;2023-04-01T03:13:17;9.50;;;3.90;;
72198;SDS011;60103;51.014;16.992;2023-04-01T03:15:47;9.70;;;4.20;;
72198;SDS011;60103;51.014;16.992;2023-04-01T03:18:16;9.00;;;3.70;;
72198;SDS011;60103;51.014;16.992;2023-04-01T03:20:45;9.70;;;4.00;;
72198;SDS011;60103;51.014;16.992;2023-04-01T03:23:14;8.60;;;3.20;;
72198;SDS011;60103;51.014;16.992;2023-04-01T03:25:46;9.70;;;3.80;;
72198;SDS011;60103;51.014;16.992;2023-04-01T03:28:16;10.80;;;4.30;;
72198;SDS011;60103;51.014;16.992;2023-04-01T03:30:45;8.30;;;3.70;;
72198;SDS011;60103;51.014;16.992;2023-04-01T03:33:14;10.50;;;4.00;;
72198;SDS011;60103;51.014;16.992;2023-04-01T03:35:43;10.10;;;3.90;;
72198;SDS011;60103;51.014;16.992;2023-04-01T03:38:11;8.00;;;3.20;;
72198;SDS011;60103;51.014;16.992;2023-04-01T03:40:42;12.20;;;4.70;;
72198;SDS011;60103;51.014;16.992;2023-04-01T03:43:11;9.10;;;4.00;;
72198;SDS011;60103;51.014;16.992;2023-04-01T03:45:50;10.70;;;4.50;;
72198;SDS011;60103;51.014;16.992;2023-04-01T03:48:19;9.70;;;4.10;;
72198;SDS011;60103;51.014;16.992;2023-04-01T03:50:48;9.10;;;3.40;;
72198;SDS011;60103;51.014;16.992;2023-04-01T03:53:17;8.50;;;3.70;;
72198;SDS011;60103;51.014;16.992;2023-04-01T03:55:47;9.50;;;3.70;;
72198;SDS011;60103;51.014;16.992;2023-04-01T03:58:16;9.10;;;3.90;;
72198;SDS011;60103;51.014;16.992;2023-04-01T04:00:45;8.70;;;3.30;;
72198;SDS011;60103;51.014;16.992;2023-04-01T04:03:15;9.60;;;3.20;;
72198;SDS011;60103;51.014;16.992;2023-04-01T04:05:47;8.20;;;3.00;;
72198;SDS011;60103;51.014;16.992;2023-04-01T04:08:17;7.80;;;3.00;;
72198;SDS011;60103;51.014;16.992;2023-04-01T04:10:46;10.10;;;3.70;;
72198;SDS011;60103;51.014;16.992;2023-04-01T04:13:16;8.50;;;2.90;;
72198;SDS011;60103;51.014;16.992;2023-04-01T04:15:50;8.70;;;2.90;;
72198;SDS011;60103;51.014;16.992;2023-04-01T04:18:19;8.10;;;2.70;;
72198;SDS011;60103;51.014;16.992;2023-04-01T04:20:48;7.50;;;2.60;;
72198;SDS011;60103;51.014;16.992;2023-04-01T04:23:19;7.70;;;2.90;;
72198;SDS011;60103;51.014;16.992;2023-04-01T04:26:02;7.70;;;2.90;;
72198;SDS011;60103;51.014;16.992;2023-04-01T04:28:33;8.50;;;3.10;;
72198;SDS011;60103;51.014;16.992;2023-04-01T04:31:02;7.60;;;2.70;;
72198;SDS011;60103;51.014;16.992;2023-04-01T04:33:34;7.30;;;2.80;;
72198;SDS011;60103;51.014;16.992;2023-04-01T04:36:03;11.70;;;2.40;;
72198;SDS011;60103;51.014;16.992;2023-04-01T04:38:33;7.40;;;2.30;;
72198;SDS011;60103;51.014;16.992;2023-04-01T04:41:01;7.30;;;2.50;;
72198;SDS011;60103;51.014;16.992;2023-04-01T04:43:33;7.00;;;2.60;;
72198;SDS011;60103;51.014;16.992;2023-04-01T04:46:06;7.90;;;2.30;;
72198;SDS011;60103;51.014;16.992;2023-04-01T04:48:35;7.20;;;2.20;;
72198;SDS011;60103;51.014;16.992;2023-04-01T04:51:04;7.30;;;2.30;;
72198;SDS011;60103;51.014;16.992;2023-04-01T04:53:33;6.60;;;2.30;;
72198;SDS011;60103;51.014;16.992;2023-04-01T04:56:02;9.50;;;2.40;;
72198;SDS011;60103;51.014;16.992;2023-04-01T04:58:37;7.80;;;2.70;;
72198;SDS011;60103;51.014;16.992;2023-04-01T05:01:09;8.70;;;3.20;;
72198;SDS011;60103;51.014;16.992;2023-04-01T05:03:39;10.00;;;3.90;;
72198;SDS011;60103;51.014;16.992;2023-04-01T05:06:09;7.80;;;3.00;;
72198;SDS011;60103;51.014;16.992;2023-04-01T05:08:39;8.90;;;3.30;;
72198;SDS011;60103;51.014;16.992;2023-04-01T05:11:12;8.00;;;2.30;;
72198;SDS011;60103;51.014;16.992;2023-04-01T05:13:43;7.30;;;2.70;;
72198;SDS011;60103;51.014;16.992;2023-04-01T05:16:14;8.50;;;2.90;;
72198;SDS011;60103;51.014;16.992;2023-04-01T05:18:45;8.80;;;3.00;;
72198;SDS011;60103;51.014;16.992;2023-04-01T05:21:16;9.10;;;3.60;;
72198;SDS011;60103;51.014;16.992;2023-04-01T05:23:45;7.70;;;2.40;;
72198;SDS011;60103;51.014;16.992;2023-04-01T05:26:15;8.00;;;2.80;;
72198;SDS011;60103;51.014;16.992;2023-04-01T05:28:44;6.90;;;2.70;;
72198;SDS011;60103;51.014;16.992;2023-04-01T05:31:13;9.90;;;2.70;;
72198;SDS011;60103;51.014;16.992;2023-04-01T05:33:47;10.20;;;3.40;;
72198;SDS011;60103;51.014;16.992;2023-04-01T05:36:16;8.10;;;2.60;;
72198;SDS011;60103;51.014;16.992;2023-04-01T05:38:45;9.40;;;3.30;;
72198;SDS011;60103;51.014;16.992;2023-04-01T05:41:17;7.80;;;2.80;;
72198;SDS011;60103;51.014;16.992;2023-04-01T05:43:46;7.60;;;2.40;;
72198;SDS011;60103;51.014;16.992;2023-04-01T05:46:45;8.40;;;2.60;;
72198;SDS011;60103;51.014;16.992;2023-04-01T05:49:25;8.00;;;2.60;;
72198;SDS011;60103;51.014;16.992;2023-04-01T05:51:56;8.60;;;2.60;;
72198;SDS011;60103;51.014;16.992;2023-04-01T05:54:27;7.30;;;2.60;;
72198;SDS011;60103;51.014;16.992;2023-04-01T05:57:05;8.70;;;2.10;;
72198;SDS011;60103;51.014;16.992;2023-04-01T05:59:45;7.50;;;2.10;;
72198;SDS011;60103;51.014;16.992;2023-04-01T06:02:16;6.40;;;2.30;;
72198;SDS011;60103;51.014;16.992;2023-04-01T06:04:46;7.00;;;2.50;;
72198;SDS011;60103;51.014;16.992;2023-04-01T06:07:16;7.60;;;2.50;;
72198;SDS011;60103;51.014;16.992;2023-04-01T06:09:47;8.20;;;2.40;;
72198;SDS011;60103;51.014;16.992;2023-04-01T06:12:20;7.40;;;2.20;;
72198;SDS011;60103;51.014;16.992;2023-04-01T06:24:17;9.90;;;3.60;;
72198;SDS011;60103;51.014;16.992;2023-04-01T06:37:52;8.30;;;3.00;;
72198;SDS011;60103;51.014;16.992;2023-04-01T06:43:28;7.80;;;2.50;;
72198;SDS011;60103;51.014;16.992;2023-04-01T06:52:38;7.80;;;2.20;;
72198;SDS011;60103;51.014;16.992;2023-04-01T06:55:47;7.50;;;1.90;;
72198;SDS011;60103;51.014;16.992;2023-04-01T06:59:02;7.20;;;2.20;;
72198;SDS011;60103;51.014;16.992;2023-04-01T07:01:35;8.10;;;2.50;;
72198;SDS011;60103;51.014;16.992;2023-04-01T07:04:11;8.60;;;3.00;;
72198;SDS011;60103;51.014;16.992;2023-04-01T07:09:38;8.20;;;2.40;;
72198;SDS011;60103;51.014;16.992;2023-04-01T07:15:25;6.90;;;2.20;;
72198;SDS011;60103;51.014;16.992;2023-04-01T07:17:59;7.00;;;2.40;;
72198;SDS011;60103;51.014;16.992;2023-04-01T07:20:32;6.60;;;2.20;;
72198;SDS011;60103;51.014;16.992;2023-04-01T07:23:04;8.30;;;2.20;;
72198;SDS011;60103;51.014;16.992;2023-04-01T07:26:15;7.00;;;2.10;;
72198;SDS011;60103;51.014;16.992;2023-04-01T07:29:05;6.50;;;2.00;;
72198;SDS011;60103;51.014;16.992;2023-04-01T07:40:47;6.30;;;1.50;;
72198;SDS011;60103;51.014;16.992;2023-04-01T07:52:00;7.60;;;1.90;;
72198;SDS011;60103;51.014;16.992;2023-04-01T08:00:02;5.40;;;1.30;;
72198;SDS011;60103;51.014;16.992;2023-04-01T08:11:45;6.40;;;1.70;;
72198;SDS011;60103;51.014;16.992;2023-04-01T08:23:24;7.60;;;1.90;;
72198;SDS011;60103;51.014;16.992;2023-04-01T08:26:08;9.60;;;2.00;;
72198;SDS011;60103;51.014;16.992;2023-04-01T08:28:49;8.80;;;2.00;;
72198;SDS011;60103;51.014;16.992;2023-04-01T08:34:42;6.60;;;1.80;;
72198;SDS011;60103;51.014;16.992;2023-04-01T08:37:28;7.20;;;1.50;;
72198;SDS011;60103;51.014;16.992;2023-04-01T08:43:07;7.90;;;1.80;;
72198;SDS011;60103;51.014;16.992;2023-04-01T08:54:22;7.90;;;1.80;;
72198;SDS011;60103;51.014;16.992;2023-04-01T08:57:01;6.40;;;1.70;;
72198;SDS011;60103;51.014;16.992;2023-04-01T08:59:45;8.00;;;1.90;;
72198;SDS011;60103;51.014;16.992;2023-04-01T09:25:15;6.60;;;2.00;;
72198;SDS011;60103;51.014;16.992;2023-04-01T09:48:15;8.40;;;2.70;;
72198;SDS011;60103;51.014;16.992;2023-04-01T10:12:11;7.10;;;2.30;;
72198;SDS011;60103;51.014;16.992;2023-04-01T10:17:28;6.20;;;2.30;;
72198;SDS011;60103;51.014;16.992;2023-04-01T10:25:29;5.70;;;2.00;;
72198;SDS011;60103;51.014;16.992;2023-04-01T10:28:19;6.70;;;1.70;;
72198;SDS011;60103;51.014;16.992;2023-04-01T10:37:31;6.80;;;2.20;;
72198;SDS011;60103;51.014;16.992;2023-04-01T10:58:54;7.90;;;2.50;;
72198;SDS011;60103;51.014;16.992;2023-04-01T11:08:24;5.00;;;1.70;;
72198;SDS011;60103;51.014;16.992;2023-04-01T11:22:12;6.90;;;2.20;;
72198;SDS011;60103;51.014;16.992;2023-04-01T11:34:26;7.50;;;2.40;;
72198;SDS011;60103;51.014;16.992;2023-04-01T11:46:33;7.00;;;2.70;;
72198;SDS011;60103;51.014;16.992;2023-04-01T11:49:43;6.30;;;2.30;;
72198;SDS011;60103;51.014;16.992;2023-04-01T12:06:55;6.90;;;2.50;;
72198;SDS011;60103;51.014;16.992;2023-04-01T12:12:42;6.50;;;2.30;;
72198;SDS011;60103;51.014;16.992;2023-04-01T12:18:33;5.90;;;2.10;;
72198;SDS011;60103;51.014;16.992;2023-04-01T12:30:06;5.70;;;1.60;;
72198;SDS011;60103;51.014;16.992;2023-04-01T12:33:18;4.80;;;1.40;;
72198;SDS011;60103;51.014;16.992;2023-04-01T12:41:39;6.10;;;1.70;;
72198;SDS011;60103;51.014;16.992;2023-04-01T12:53:17;4.80;;;1.30;;
72198;SDS011;60103;51.014;16.992;2023-04-01T13:14:16;6.20;;;1.60;;
72198;SDS011;60103;51.014;16.992;2023-04-01T13:28:23;6.50;;;1.70;;
72198;SDS011;60103;51.014;16.992;2023-04-01T13:31:06;7.10;;;1.60;;
72198;SDS011;60103;51.014;16.992;2023-04-01T13:42:47;5.80;;;1.50;;
72198;SDS011;60103;51.014;16.992;2023-04-01T13:45:26;7.70;;;2.00;;
72198;SDS011;60103;51.014;16.992;2023-04-01T13:58:53;3.80;;;1.00;;
72198;SDS011;60103;51.014;16.992;2023-04-01T14:04:27;4.60;;;1.10;;
72198;SDS011;60103;51.014;16.992;2023-04-01T14:13:03;4.50;;;1.30;;
72198;SDS011;60103;51.014;16.992;2023-04-01T14:15:56;6.40;;;1.90;;
72198;SDS011;60103;51.014;16.992;2023-04-01T14:40:50;3.90;;;0.90;;
72198;SDS011;60103;51.014;16.992;2023-04-01T14:46:22;5.50;;;1.30;;
72198;SDS011;60103;51.014;16.992;2023-04-01T14:49:20;3.60;;;1.10;;
72198;SDS011;60103;51.014;16.992;2023-04-01T14:51:51;6.20;;;1.70;;
72198;SDS011;60103;51.014;16.992;2023-04-01T14:54:35;5.60;;;1.70;;
72198;SDS011;60103;51.014;16.992;2023-04-01T14:57:40;8.00;;;2.50;;
72198;SDS011;60103;51.014;16.992;2023-04-01T15:08:00;6.20;;;1.40;;
72198;SDS011;60103;51.014;16.992;2023-04-01T15:17:06;7.20;;;1.70;;
72198;SDS011;60103;51.014;16.992;2023-04-01T15:19:36;7.20;;;2.40;;
72198;SDS011;60103;51.014;16.992;2023-04-01T15:30:54;9.80;;;2.90;;
72198;SDS011;60103;51.014;16.992;2023-04-01T15:33:29;9.40;;;3.30;;
72198;SDS011;60103;51.014;16.992;2023-04-01T15:36:09;9.00;;;3.20;;
72198;SDS011;60103;51.014;16.992;2023-04-01T15:39:13;11.10;;;4.10;;
72198;SDS011;60103;51.014;16.992;2023-04-01T15:41:58;9.40;;;3.30;;
72198;SDS011;60103;51.014;16.992;2023-04-01T15:47:59;11.00;;;4.00;;
72198;SDS011;60103;51.014;16.992;2023-04-01T15:55:59;8.20;;;2.80;;
72198;SDS011;60103;51.014;16.992;2023-04-01T16:01:34;7.80;;;2.90;;
72198;SDS011;60103;51.014;16.992;2023-04-01T16:04:23;7.40;;;2.20;;
72198;SDS011;60103;51.014;16.992;2023-04-01T16:07:02;7.60;;;2.70;;
72198;SDS011;60103;51.014;16.992;2023-04-01T16:15:35;9.30;;;3.40;;
72198;SDS011;60103;51.014;16.992;2023-04-01T16:21:04;8.10;;;2.60;;
72198;SDS011;60103;51.014;16.992;2023-04-01T16:23:37;8.50;;;3.50;;
72198;SDS011;60103;51.014;16.992;2023-04-01T16:31:55;9.40;;;3.50;;
72198;SDS011;60103;51.014;16.992;2023-04-01T16:35:46;10.30;;;3.70;;
72198;SDS011;60103;51.014;16.992;2023-04-01T16:37:54;10.10;;;4.00;;
72198;SDS011;60103;51.014;16.992;2023-04-01T16:40:57;10.60;;;4.00;;
72198;SDS011;60103;51.014;16.992;2023-04-01T16:43:49;9.50;;;3.60;;
72198;SDS011;60103;51.014;16.992;2023-04-01T16:46:33;9.80;;;3.80;;
72198;SDS011;60103;51.014;16.992;2023-04-01T17:02:27;13.00;;;7.50;;
72198;SDS011;60103;51.014;16.992;2023-04-01T17:05:05;12.50;;;5.70;;
72198;SDS011;60103;51.014;16.992;2023-04-01T17:10:44;11.40;;;4.60;;
72198;SDS011;60103;51.014;16.992;2023-04-01T17:13:35;10.30;;;3.70;;
72198;SDS011;60103;51.014;16.992;2023-04-01T17:34:03;31.90;;;15.80;;
72198;SDS011;60103;51.014;16.992;2023-04-01T17:39:33;20.60;;;11.10;;
72198;SDS011;60103;51.014;16.992;2023-04-01T17:42:31;21.90;;;10.60;;
72198;SDS011;60103;51.014;16.992;2023-04-01T17:48:16;24.40;;;14.30;;
72198;SDS011;60103;51.014;16.992;2023-04-01T17:51:28;17.70;;;9.80;;
72198;SDS011;60103;51.014;16.992;2023-04-01T17:54:15;14.40;;;7.50;;
72198;SDS011;60103;51.014;16.992;2023-04-01T18:00:15;13.00;;;6.20;;
72198;SDS011;60103;51.014;16.992;2023-04-01T18:15:00;17.30;;;7.90;;
72198;SDS011;60103;51.014;16.992;2023-04-01T18:18:02;17.00;;;7.60;;
72198;SDS011;60103;51.014;16.992;2023-04-01T18:20:53;16.80;;;8.00;;
72198;SDS011;60103;51.014;16.992;2023-04-01T18:26:32;15.80;;;7.60;;
72198;SDS011;60103;51.014;16.992;2023-04-01T18:38:15;25.70;;;11.30;;
72198;SDS011;60103;51.014;16.992;2023-04-01T18:41:15;23.50;;;10.70;;
72198;SDS011;60103;51.014;16.992;2023-04-01T18:46:59;23.90;;;10.80;;
72198;SDS011;60103;51.014;16.992;2023-04-01T18:49:59;27.60;;;12.60;;
72198;SDS011;60103;51.014;16.992;2023-04-01T18:52:51;24.30;;;11.20;;
72198;SDS011;60103;51.014;16.992;2023-04-01T18:55:54;28.30;;;13.20;;
72198;SDS011;60103;51.014;16.992;2023-04-01T18:58:48;32.00;;;16.20;;
72198;SDS011;60103;51.014;16.992;2023-04-01T19:07:01;31.80;;;14.50;;
72198;SDS011;60103;51.014;16.992;2023-04-01T19:09:54;26.20;;;10.30;;
72198;SDS011;60103;51.014;16.992;2023-04-01T19:12:40;26.80;;;12.10;;
72198;SDS011;60103;51.014;16.992;2023-04-01T19:26:59;27.70;;;12.90;;
72198;SDS011;60103;51.014;16.992;2023-04-01T19:29:44;29.00;;;14.50;;
72198;SDS011;60103;51.014;16.992;2023-04-01T19:32:27;32.30;;;16.00;;
72198;SDS011;60103;51.014;16.992;2023-04-01T19:38:15;26.70;;;12.00;;
72198;SDS011;60103;51.014;16.992;2023-04-01T19:43:55;29.90;;;13.50;;
72198;SDS011;60103;51.014;16.992;2023-04-01T19:46:33;29.80;;;13.30;;
72198;SDS011;60103;51.014;16.992;2023-04-01T19:52:08;25.80;;;10.80;;
72198;SDS011;60103;51.014;16.992;2023-04-01T19:58:05;24.10;;;10.50;;
72198;SDS011;60103;51.014;16.992;2023-04-01T20:00:43;24.00;;;10.80;;
72198;SDS011;60103;51.014;16.992;2023-04-01T20:09:00;30.30;;;13.20;;
72198;SDS011;60103;51.014;16.992;2023-04-01T20:17:16;27.40;;;11.10;;
72198;SDS011;60103;51.014;16.992;2023-04-01T20:22:34;32.60;;;13.50;;
72198;SDS011;60103;51.014;16.992;2023-04-01T20:28:05;31.30;;;13.30;;
72198;SDS011;60103;51.014;16.992;2023-04-01T20:33:51;28.30;;;11.40;;
72198;SDS011;60103;51.014;16.992;2023-04-01T20:36:46;26.10;;;11.00;;
72198;SDS011;60103;51.014;16.992;2023-04-01T20:42:27;28.50;;;12.80;;
72198;SDS011;60103;51.014;16.992;2023-04-01T20:50:45;32.30;;;13.90;;
72198;SDS011;60103;51.014;16.992;2023-04-01T21:01:51;33.60;;;14.70;;
72198;SDS011;60103;51.014;16.992;2023-04-01T21:05:00;26.90;;;11.90;;
72198;SDS011;60103;51.014;16.992;2023-04-01T21:16:19;27.90;;;12.60;;
72198;SDS011;60103;51.014;16.992;2023-04-01T21:22:03;31.10;;;14.00;;
72198;SDS011;60103;51.014;16.992;2023-04-01T21:30:35;29.10;;;12.90;;
72198;SDS011;60103;51.014;16.992;2023-04-01T21:39:02;30.40;;;14.40;;
72198;SDS011;60103;51.014;16.992;2023-04-01T21:41:47;29.80;;;14.10;;
72198;SDS011;60103;51.014;16.992;2023-04-01T22:05:22;36.70;;;16.50;;
72198;SDS011;60103;51.014;16.992;2023-04-01T22:13:23;29.40;;;13.00;;
72198;SDS011;60103;51.014;16.992;2023-04-01T22:18:46;30.10;;;13.60;;
72198;SDS011;60103;51.014;16.992;2023-04-01T22:22:04;27.40;;;11.90;;
72198;SDS011;60103;51.014;16.992;2023-04-01T22:27:40;28.90;;;12.80;;
72198;SDS011;60103;51.014;16.992;2023-04-01T22:30:31;28.20;;;11.50;;
72198;SDS011;60103;51.014;16.992;2023-04-01T22:39:32;36.10;;;15.60;;
72198;SDS011;60103;51.014;16.992;2023-04-01T22:42:20;29.60;;;12.60;;
72198;SDS011;60103;51.014;16.992;2023-04-01T22:45:05;27.50;;;11.70;;
72198;SDS011;60103;51.014;16.992;2023-04-01T22:51:26;35.10;;;15.90;;
72198;SDS011;60103;51.014;16.992;2023-04-01T22:53:39;41.20;;;17.50;;
72198;SDS011;60103;51.014;16.992;2023-04-01T22:56:28;32.60;;;15.20;;
72198;SDS011;60103;51.014;16.992;2023-04-01T23:01:41;32.80;;;15.00;;
72198;SDS011;60103;51.014;16.992;2023-04-01T23:04:15;28.50;;;13.10;;
72198;SDS011;60103;51.014;16.992;2023-04-01T23:06:47;27.20;;;12.70;;
72198;SDS011;60103;51.014;16.992;2023-04-01T23:09:33;23.60;;;10.30;;
72198;SDS011;60103;51.014;16.992;2023-04-01T23:12:12;30.10;;;12.90;;
72198;SDS011;60103;51.014;16.992;2023-04-01T23:14:52;24.10;;;10.50;;
72198;SDS011;60103;51.014;16.992;2023-04-01T23:22:43;20.80;;;8.90;;
72198;SDS011;60103;51.014;16.992;2023-04-01T23:33:19;21.70;;;10.70;;
72198;SDS011;60103;51.014;16.992;2023-04-01T23:36:00;22.30;;;10.70;;
72198;SDS011;60103;51.014;16.992;2023-04-01T23:38:35;21.40;;;9.70;;
72198;SDS011;60103;51.014;16.992;2023-04-01T23:41:25;20.90;;;9.70;;
72198;SDS011;60103;51.014;16.992;2023-04-01T23:44:02;21.30;;;10.00;;
72198;SDS011;60103;51.014;16.992;2023-04-01T23:46:36;19.50;;;9.40;;
72198;SDS011;60103;51.014;16.992;2023-04-01T23:49:16;24.70;;;12.20;;
72198;SDS011;60103;51.014;16.992;2023-04-01T23:55:02;19.10;;;8.40;;
72198;SDS011;60103;51.014;16.992;2023-04-01T23:57:33;16.20;;;7.20;;
